createdAt,value
2022-09-25T00:01:18.082Z,1.30
2022-09-25T00:03:45.075Z,1.00
2022-09-25T00:06:23.784Z,1.00
2022-09-25T00:08:52.352Z,0.90
2022-09-25T00:11:29.231Z,1.23
2022-09-25T00:13:56.413Z,1.10
2022-09-25T00:16:26.914Z,1.30
2022-09-25T00:19:12.709Z,1.05
2022-09-25T00:21:39.381Z,1.20
2022-09-25T00:24:09.005Z,1.40
2022-09-25T00:26:39.183Z,1.37
2022-09-25T00:29:07.829Z,0.90
2022-09-25T00:31:35.812Z,1.55
2022-09-25T00:34:05.393Z,1.02
2022-09-25T00:36:33.710Z,0.98
2022-09-25T00:39:00.848Z,0.77
2022-09-25T00:41:31.901Z,1.25
2022-09-25T00:44:01.181Z,1.00
2022-09-25T00:46:33.558Z,1.40
2022-09-25T00:49:10.226Z,1.33
2022-09-25T00:51:46.180Z,1.10
2022-09-25T00:54:17.543Z,1.08
2022-09-25T00:56:49.522Z,1.27
2022-09-25T00:59:23.406Z,0.90
2022-09-25T01:01:50.865Z,1.00
2022-09-25T01:04:18.661Z,0.90
2022-09-25T01:06:45.934Z,0.85
2022-09-25T01:09:13.702Z,1.08
2022-09-25T01:11:41.505Z,1.80
2022-09-25T01:14:10.336Z,1.08
2022-09-25T01:16:50.646Z,1.00
2022-09-25T01:19:39.245Z,0.90
2022-09-25T01:22:55.910Z,0.82
2022-09-25T01:25:43.026Z,0.70
2022-09-25T01:28:29.611Z,1.00
2022-09-25T01:31:08.865Z,0.90
2022-09-25T01:33:43.843Z,1.00
2022-09-25T01:36:34.186Z,0.93
2022-09-25T01:39:07.468Z,0.77
2022-09-25T01:42:05.074Z,1.00
2022-09-25T01:44:50.938Z,1.00
2022-09-25T01:47:24.160Z,0.90
2022-09-25T01:50:16.366Z,0.90
2022-09-25T01:52:53.324Z,0.90
2022-09-25T01:55:27.319Z,0.63
2022-09-25T01:58:03.970Z,0.90
2022-09-25T02:00:33.797Z,0.85
2022-09-25T02:03:37.311Z,0.80
2022-09-25T02:06:10.421Z,0.70
2022-09-25T02:08:46.253Z,0.80
2022-09-25T02:11:14.564Z,0.60
2022-09-25T02:13:46.483Z,0.60
2022-09-25T02:16:26.364Z,0.60
2022-09-25T02:19:22.597Z,1.00
2022-09-25T02:22:00.847Z,0.80
2022-09-25T02:24:58.622Z,0.93
2022-09-25T02:27:27.716Z,0.75
2022-09-25T02:29:56.410Z,0.95
2022-09-25T02:32:28.169Z,0.98
2022-09-25T02:34:56.472Z,0.70
2022-09-25T02:37:23.929Z,0.83
2022-09-25T02:39:53.336Z,1.17
2022-09-25T02:42:56.110Z,1.02
2022-09-25T02:45:51.064Z,1.02
2022-09-25T02:48:24.138Z,0.52
2022-09-25T02:51:05.284Z,1.20
2022-09-25T02:54:01.679Z,0.88
2022-09-25T02:56:41.626Z,0.90
2022-09-25T02:59:23.246Z,0.70
2022-09-25T03:01:51.146Z,0.63
2022-09-25T03:04:19.201Z,0.70
2022-09-25T03:06:46.352Z,0.57
2022-09-25T03:09:15.485Z,0.82
2022-09-25T03:11:43.623Z,0.70
2022-09-25T03:14:10.913Z,0.73
2022-09-25T03:16:56.754Z,0.70
2022-09-25T03:19:26.886Z,0.73
2022-09-25T03:21:54.141Z,0.65
2022-09-25T03:24:21.418Z,0.70
2022-09-25T03:26:47.850Z,0.68
2022-09-25T03:29:16.724Z,0.60
2022-09-25T03:31:45.565Z,0.70
2022-09-25T03:34:15.280Z,0.70
2022-09-25T03:36:42.212Z,0.50
2022-09-25T03:39:10.895Z,0.47
2022-09-25T03:41:37.635Z,0.50
2022-09-25T03:44:04.711Z,0.60
2022-09-25T03:46:35.672Z,0.80
2022-09-25T03:49:03.227Z,0.68
2022-09-25T03:51:31.872Z,0.70
2022-09-25T03:53:58.640Z,0.83
2022-09-25T03:56:27.235Z,1.40
2022-09-25T03:58:54.477Z,0.60
2022-09-25T04:01:22.159Z,0.73
2022-09-25T04:03:49.740Z,0.60
2022-09-25T04:06:19.202Z,0.50
2022-09-25T04:08:47.689Z,0.75
2022-09-25T04:11:16.033Z,0.70
2022-09-25T04:13:44.129Z,0.70
2022-09-25T04:16:12.063Z,0.60
2022-09-25T04:18:41.892Z,0.40
2022-09-25T04:21:10.129Z,0.57
2022-09-25T04:23:37.848Z,0.60
2022-09-25T04:26:04.709Z,0.45
2022-09-25T04:28:33.011Z,0.40
2022-09-25T04:31:00.307Z,0.43
2022-09-25T04:33:45.603Z,0.50
2022-09-25T04:36:12.724Z,0.47
2022-09-25T04:38:39.236Z,0.50
2022-09-25T04:41:06.164Z,0.55
2022-09-25T04:43:33.081Z,0.40
2022-09-25T04:46:08.322Z,0.55
2022-09-25T04:48:35.696Z,0.55
2022-09-25T04:51:03.836Z,0.57
2022-09-25T04:53:32.164Z,0.70
2022-09-25T04:56:12.181Z,0.70
2022-09-25T04:58:47.806Z,1.00
2022-09-25T05:01:15.196Z,0.50
2022-09-25T05:03:43.003Z,0.57
2022-09-25T05:06:09.785Z,0.40
2022-09-25T05:08:36.253Z,0.60
2022-09-25T05:11:04.067Z,1.13
2022-09-25T05:13:30.740Z,0.60
2022-09-25T05:15:58.091Z,0.70
2022-09-25T05:18:25.411Z,0.57
2022-09-25T05:20:55.945Z,0.80
2022-09-25T05:23:23.830Z,0.60
2022-09-25T05:25:55.091Z,0.40
2022-09-25T05:28:23.629Z,0.50
2022-09-25T05:30:51.061Z,0.40
2022-09-25T05:33:19.016Z,0.57
2022-09-25T05:35:45.924Z,0.60
2022-09-25T05:38:12.648Z,0.70
2022-09-25T05:40:39.614Z,0.70
2022-09-25T05:43:06.569Z,0.65
2022-09-25T05:45:34.488Z,0.60
2022-09-25T05:48:02.807Z,0.75
2022-09-25T05:50:29.295Z,0.70
2022-09-25T05:53:00.271Z,0.60
2022-09-25T05:55:27.381Z,0.52
2022-09-25T05:57:53.957Z,0.53
2022-09-25T06:00:20.648Z,0.60
2022-09-25T06:02:51.915Z,0.50
2022-09-25T06:05:18.607Z,0.85
2022-09-25T06:07:45.055Z,0.60
2022-09-25T06:10:11.582Z,0.83
2022-09-25T06:12:38.386Z,0.80
2022-09-25T06:15:05.529Z,0.60
2022-09-25T06:17:32.036Z,0.63
2022-09-25T06:19:58.476Z,0.82
2022-09-25T06:22:24.869Z,0.70
2022-09-25T06:24:51.414Z,0.52
2022-09-25T06:27:17.948Z,0.60
2022-09-25T06:29:44.358Z,0.60
2022-09-25T06:32:10.777Z,0.60
2022-09-25T06:34:37.728Z,0.70
2022-09-25T06:37:04.172Z,0.45
2022-09-25T06:39:36.020Z,1.35
2022-09-25T06:42:02.522Z,1.27
2022-09-25T06:44:29.119Z,1.02
2022-09-25T06:46:55.685Z,1.07
2022-09-25T06:49:22.177Z,1.50
2022-09-25T06:51:51.160Z,1.50
2022-09-25T06:54:17.971Z,1.40
2022-09-25T06:56:48.365Z,1.05
2022-09-25T06:59:15.048Z,1.20
2022-09-25T07:01:41.704Z,1.27
2022-09-25T07:04:08.223Z,1.27
2022-09-25T07:06:37.275Z,0.80
2022-09-25T07:09:04.023Z,0.85
2022-09-25T07:11:33.867Z,0.77
2022-09-25T07:14:00.368Z,0.73
2022-09-25T07:16:29.965Z,0.90
2022-09-25T07:19:00.777Z,0.98
2022-09-25T07:21:30.542Z,0.80
2022-09-25T07:23:58.241Z,0.70
2022-09-25T07:26:28.184Z,0.70
2022-09-25T07:28:57.268Z,0.50
2022-09-25T07:31:26.479Z,0.68
2022-09-25T07:33:53.842Z,0.70
2022-09-25T07:36:20.773Z,0.60
2022-09-25T07:38:52.100Z,0.52
2022-09-25T07:41:19.849Z,0.60
2022-09-25T07:43:46.593Z,0.60
2022-09-25T07:46:13.626Z,0.60
2022-09-25T07:48:40.236Z,0.40
2022-09-25T07:51:09.907Z,0.60
2022-09-25T07:53:36.795Z,0.40
2022-09-25T07:56:06.846Z,0.60
2022-09-25T07:58:35.310Z,0.50
2022-09-25T08:01:04.562Z,0.40
2022-09-25T08:03:31.571Z,0.43
2022-09-25T08:06:03.361Z,0.60
2022-09-25T08:08:30.511Z,0.35
2022-09-25T08:11:03.897Z,0.40
2022-09-25T08:13:32.724Z,0.40
2022-09-25T08:16:02.265Z,0.47
2022-09-25T08:18:28.864Z,0.32
2022-09-25T08:21:01.069Z,0.40
2022-09-25T08:23:28.158Z,0.30
2022-09-25T08:25:54.626Z,0.40
2022-09-25T08:28:21.132Z,0.35
2022-09-25T08:30:47.669Z,0.30
2022-09-25T08:33:15.739Z,0.40
2022-09-25T08:35:43.425Z,0.40
2022-09-25T08:38:13.382Z,0.20
2022-09-25T08:40:55.075Z,0.30
2022-09-25T08:43:24.588Z,0.20
2022-09-25T08:46:11.227Z,0.30
2022-09-25T08:49:02.035Z,0.30
2022-09-25T08:51:49.836Z,0.40
2022-09-25T08:54:22.592Z,0.50
2022-09-25T08:56:56.236Z,0.28
2022-09-25T08:59:30.832Z,0.30
2022-09-25T09:02:09.376Z,0.20
2022-09-25T09:04:46.626Z,0.23
2022-09-25T09:07:27.934Z,0.38
2022-09-25T09:10:21.998Z,0.30
2022-09-25T09:12:56.501Z,0.30
2022-09-25T09:15:34.517Z,0.28
2022-09-25T09:18:08.017Z,0.30
2022-09-25T09:20:46.073Z,0.47
2022-09-25T09:23:18.841Z,0.35
2022-09-25T09:25:58.399Z,0.30
2022-09-25T09:28:52.228Z,0.30
2022-09-25T09:31:51.629Z,0.63
2022-09-25T09:34:53.470Z,0.30
2022-09-25T09:37:42.467Z,0.20
2022-09-25T09:40:11.873Z,0.20
2022-09-25T09:43:17.351Z,0.20
2022-09-25T09:45:54.145Z,0.53
2022-09-25T09:48:34.829Z,0.20
2022-09-25T09:51:07.519Z,0.20
2022-09-25T09:53:46.445Z,0.52
2022-09-25T09:56:21.214Z,0.28
2022-09-25T09:58:54.350Z,0.20
2022-09-25T10:04:16.010Z,0.20
2022-09-25T10:06:47.239Z,0.20
2022-09-25T10:09:16.025Z,0.13
2022-09-25T10:11:44.178Z,0.20
2022-09-25T10:14:20.576Z,0.50
2022-09-25T10:16:52.213Z,0.30
2022-09-25T10:19:24.098Z,0.30
2022-09-25T10:22:00.070Z,0.20
2022-09-25T10:24:51.902Z,0.20
2022-09-25T10:27:37.441Z,0.20
2022-09-25T10:30:08.826Z,0.30
2022-09-25T10:32:43.228Z,0.10
2022-09-25T10:35:19.377Z,0.50
2022-09-25T10:37:50.983Z,0.30
2022-09-25T10:40:23.768Z,0.13
2022-09-25T10:43:03.008Z,0.20
2022-09-25T10:45:31.144Z,0.30
2022-09-25T10:48:16.961Z,6.93
2022-09-25T10:50:43.689Z,3.23
2022-09-25T10:53:30.608Z,2.15
2022-09-25T10:56:05.217Z,0.82
2022-09-25T10:58:55.191Z,1.65
2022-09-25T11:01:31.270Z,1.42
2022-09-25T11:03:58.885Z,0.50
2022-09-25T11:06:34.848Z,2.20
2022-09-25T11:09:14.396Z,0.40
2022-09-25T11:11:41.805Z,0.20
2022-09-25T11:14:19.377Z,0.20
2022-09-25T11:16:56.195Z,1.17
2022-09-25T11:19:36.305Z,0.57
2022-09-25T11:22:19.296Z,0.35
2022-09-25T11:25:11.622Z,5.38
2022-09-25T11:27:53.715Z,0.45
2022-09-25T11:30:22.813Z,1.27
2022-09-25T11:33:04.176Z,0.50
2022-09-25T11:36:00.251Z,0.70
2022-09-25T11:39:09.146Z,0.43
2022-09-25T11:41:48.336Z,1.38
2022-09-25T11:44:36.956Z,2.50
2022-09-25T11:47:06.804Z,2.83
2022-09-25T11:49:38.082Z,0.40
2022-09-25T11:52:16.638Z,0.20
2022-09-25T11:55:05.776Z,0.30
2022-09-25T11:57:38.810Z,1.10
2022-09-25T12:00:21.192Z,1.27
2022-09-25T12:03:09.453Z,0.55
2022-09-25T12:05:48.059Z,0.20
2022-09-25T12:08:41.735Z,0.20
2022-09-25T12:11:28.528Z,0.20
2022-09-25T12:14:14.047Z,0.70
2022-09-25T12:16:46.348Z,0.60
2022-09-25T12:19:37.688Z,0.40
2022-09-25T12:22:20.610Z,0.30
2022-09-25T12:24:53.389Z,0.23
2022-09-25T12:27:45.417Z,1.00
2022-09-25T12:30:19.669Z,0.20
2022-09-25T12:32:54.027Z,0.10
2022-09-25T12:35:37.084Z,0.20
2022-09-25T12:38:18.799Z,0.20
2022-09-25T12:40:51.464Z,0.20
2022-09-25T12:43:28.879Z,0.38
2022-09-25T12:46:01.639Z,0.20
2022-09-25T12:48:40.458Z,0.20
2022-09-25T12:51:25.322Z,0.20
2022-09-25T12:54:13.430Z,0.20
2022-09-25T12:56:47.537Z,0.40
2022-09-25T12:59:33.710Z,0.10
2022-09-25T13:02:30.508Z,0.13
2022-09-25T13:05:45.183Z,0.10
2022-09-25T13:08:27.416Z,0.20
2022-09-25T13:11:02.086Z,0.10
2022-09-25T13:13:35.983Z,0.20
2022-09-25T13:16:02.930Z,0.30
2022-09-25T13:18:34.014Z,0.10
2022-09-25T13:21:31.481Z,0.10
2022-09-25T13:23:59.496Z,0.70
2022-09-25T13:26:27.180Z,3.78
2022-09-25T13:29:05.220Z,5.82
2022-09-25T13:31:34.486Z,2.50
2022-09-25T13:34:00.879Z,1.35
2022-09-25T13:36:51.926Z,4.78
2022-09-25T13:39:54.486Z,0.30
2022-09-25T13:42:45.525Z,0.73
2022-09-25T13:45:35.079Z,2.63
2022-09-25T13:48:27.870Z,0.50
2022-09-25T13:51:20.207Z,0.20
2022-09-25T13:54:04.472Z,0.20
2022-09-25T13:56:34.351Z,0.28
2022-09-25T13:59:20.918Z,0.20
2022-09-25T14:01:54.764Z,0.88
2022-09-25T14:04:46.371Z,0.30
2022-09-25T14:07:19.512Z,0.38
2022-09-25T14:09:50.311Z,0.10
2022-09-25T14:12:26.820Z,0.20
2022-09-25T14:14:59.500Z,0.20
2022-09-25T14:17:32.205Z,0.10
2022-09-25T14:20:02.471Z,0.10
2022-09-25T14:22:46.150Z,0.30
2022-09-25T14:25:33.055Z,0.10
2022-09-25T14:28:01.244Z,0.50
2022-09-25T14:30:30.234Z,0.30
2022-09-25T14:32:59.786Z,0.22
2022-09-25T14:35:35.990Z,0.20
2022-09-25T14:38:24.552Z,0.20
2022-09-25T14:40:54.466Z,0.10
2022-09-25T14:43:45.387Z,0.20
2022-09-25T14:46:20.690Z,0.20
2022-09-25T14:48:52.034Z,0.20
2022-09-25T14:51:25.838Z,0.30
2022-09-25T14:53:57.508Z,0.10
2022-09-25T14:56:25.421Z,0.20
2022-09-25T14:58:57.827Z,0.10
2022-09-25T15:01:31.805Z,0.30
2022-09-25T15:04:09.036Z,0.20
2022-09-25T15:06:39.142Z,0.10
2022-09-25T15:09:36.081Z,0.30
2022-09-25T15:12:24.106Z,0.10
2022-09-25T15:14:57.545Z,0.20
2022-09-25T15:17:24.973Z,0.10
2022-09-25T15:19:51.998Z,0.20
2022-09-25T15:22:29.414Z,0.10
2022-09-25T15:24:59.834Z,0.10
2022-09-25T15:27:28.187Z,0.28
2022-09-25T15:29:56.609Z,0.10
2022-09-25T15:32:38.383Z,0.10
2022-09-25T15:35:10.916Z,0.10
2022-09-25T15:37:39.445Z,0.10
2022-09-25T15:40:28.354Z,0.20
2022-09-25T15:42:55.552Z,0.30
2022-09-25T15:45:28.309Z,0.30
2022-09-25T15:47:55.027Z,0.17
2022-09-25T15:50:25.274Z,0.20
2022-09-25T15:52:57.691Z,0.13
2022-09-25T15:55:24.729Z,0.20
2022-09-25T15:58:04.078Z,0.32
2022-09-25T16:00:49.913Z,0.20
2022-09-25T16:03:41.064Z,0.30
2022-09-25T16:06:14.538Z,0.47
2022-09-25T16:08:42.088Z,0.30
2022-09-25T16:11:15.284Z,0.20
2022-09-25T16:13:44.244Z,0.30
2022-09-25T16:16:17.888Z,0.30
2022-09-25T16:18:47.434Z,0.20
2022-09-25T16:21:38.933Z,0.50
2022-09-25T16:24:07.872Z,0.20
2022-09-25T16:26:39.352Z,0.20
2022-09-25T16:29:12.159Z,0.20
2022-09-25T16:31:41.604Z,0.20
2022-09-25T16:34:18.510Z,0.20
2022-09-25T16:36:47.432Z,0.40
2022-09-25T16:39:24.023Z,0.25
2022-09-25T16:41:51.501Z,0.30
2022-09-25T16:44:35.905Z,0.30
2022-09-25T16:47:13.115Z,0.30
2022-09-25T16:49:40.492Z,0.35
2022-09-25T16:52:08.553Z,0.20
2022-09-25T16:54:37.747Z,0.28
2022-09-25T16:57:04.884Z,0.40
2022-09-25T16:59:31.690Z,0.30
2022-09-25T17:02:02.598Z,0.30
2022-09-25T17:04:31.261Z,0.70
2022-09-25T17:06:58.589Z,0.40
2022-09-25T17:09:28.277Z,0.45
2022-09-25T17:12:08.673Z,0.40
2022-09-25T17:14:36.328Z,0.50
2022-09-25T17:17:03.126Z,0.60
2022-09-25T17:19:30.037Z,0.50
2022-09-25T17:21:57.154Z,0.70
2022-09-25T17:24:26.847Z,0.60
2022-09-25T17:26:54.260Z,0.50
2022-09-25T17:29:21.878Z,0.52
2022-09-25T17:31:48.644Z,0.57
2022-09-25T17:34:21.014Z,0.50
2022-09-25T17:36:47.553Z,0.67
2022-09-25T17:39:14.378Z,0.80
2022-09-25T17:41:42.050Z,0.70
2022-09-25T17:44:16.811Z,0.80
2022-09-25T17:46:44.045Z,0.65
2022-09-25T17:49:11.444Z,1.00
2022-09-25T17:51:38.712Z,0.73
2022-09-25T17:54:06.598Z,0.65
2022-09-25T17:56:39.269Z,0.60
2022-09-25T17:59:05.997Z,0.55
2022-09-25T18:01:38.291Z,0.60
2022-09-25T18:04:23.704Z,0.50
2022-09-25T18:06:51.391Z,0.95
2022-09-25T18:09:18.663Z,1.33
2022-09-25T18:11:45.514Z,0.80
2022-09-25T18:14:13.701Z,1.00
2022-09-25T18:16:42.372Z,1.30
2022-09-25T18:19:38.572Z,1.50
2022-09-25T18:22:18.745Z,1.50
2022-09-25T18:24:54.351Z,1.92
2022-09-25T18:27:21.151Z,2.00
2022-09-25T18:29:47.691Z,1.92
2022-09-25T18:32:14.908Z,2.03
2022-09-25T18:34:42.810Z,1.52
2022-09-25T18:37:09.950Z,2.45
2022-09-25T18:39:37.369Z,2.20
2022-09-25T18:42:05.081Z,2.33
2022-09-25T18:44:38.436Z,2.38
2022-09-25T18:47:08.298Z,1.90
2022-09-25T18:49:36.568Z,2.13
2022-09-25T18:52:03.813Z,2.03
2022-09-25T18:54:30.402Z,1.90
2022-09-25T18:56:58.504Z,1.90
2022-09-25T18:59:26.519Z,2.00
2022-09-25T19:01:54.564Z,2.65
2022-09-25T19:04:21.665Z,2.20
2022-09-25T19:06:48.666Z,2.25
2022-09-25T19:09:24.241Z,1.95
2022-09-25T19:11:55.050Z,1.75
2022-09-25T19:14:22.707Z,1.60
2022-09-25T19:16:51.734Z,1.50
2022-09-25T19:19:18.942Z,1.40
2022-09-25T19:21:45.903Z,1.52
2022-09-25T19:24:12.552Z,1.70
2022-09-25T19:26:41.720Z,3.22
2022-09-25T19:29:08.481Z,3.80
2022-09-25T19:31:35.744Z,4.03
2022-09-25T19:34:03.122Z,6.07
2022-09-25T19:36:32.527Z,6.43
2022-09-25T19:39:00.699Z,11.13
2022-09-25T19:41:32.224Z,10.80
2022-09-25T19:44:01.946Z,4.28
2022-09-25T19:46:31.341Z,6.28
2022-09-25T19:48:58.940Z,3.35
2022-09-25T19:51:26.213Z,2.20
2022-09-25T19:53:54.017Z,2.00
2022-09-25T19:56:21.333Z,3.30
2022-09-25T19:58:50.657Z,3.17
2022-09-25T20:01:20.752Z,2.45
2022-09-25T20:03:47.910Z,2.47
2022-09-25T20:06:15.993Z,3.23
2022-09-25T20:08:42.638Z,2.83
2022-09-25T20:11:21.848Z,2.00
2022-09-25T20:13:50.955Z,1.80
2022-09-25T20:16:20.786Z,1.40
2022-09-25T20:18:53.732Z,1.23
2022-09-25T20:21:23.180Z,1.15
2022-09-25T20:23:54.205Z,1.10
2022-09-25T20:26:23.197Z,1.20
2022-09-25T20:28:56.218Z,1.38
2022-09-25T20:31:23.205Z,1.10
2022-09-25T20:33:49.942Z,1.20
2022-09-25T20:36:17.810Z,1.00
2022-09-25T20:38:45.318Z,1.00
2022-09-25T20:41:13.455Z,1.02
2022-09-25T20:43:41.016Z,1.10
2022-09-25T20:46:13.765Z,1.10
2022-09-25T20:48:45.452Z,1.13
2022-09-25T20:51:15.279Z,1.10
2022-09-25T20:53:42.847Z,1.20
2022-09-25T20:56:14.778Z,1.40
2022-09-25T20:58:43.139Z,1.02
2022-09-25T21:01:13.480Z,1.42
2022-09-25T21:03:42.965Z,1.33
2022-09-25T21:06:21.842Z,1.52
2022-09-25T21:08:52.906Z,1.30
2022-09-25T21:11:20.083Z,1.00
2022-09-25T21:13:51.330Z,1.20
2022-09-25T21:16:18.916Z,1.10
2022-09-25T21:18:45.690Z,1.10
2022-09-25T21:21:16.090Z,1.10
2022-09-25T21:23:43.854Z,1.25
2022-09-25T21:26:13.806Z,1.25
2022-09-25T21:28:42.793Z,1.13
2022-09-25T21:31:14.574Z,1.48
2022-09-25T21:33:45.172Z,1.10
2022-09-25T21:36:14.437Z,1.40
2022-09-25T21:38:41.402Z,1.27
2022-09-25T21:41:19.707Z,1.30
2022-09-25T21:43:46.930Z,1.10
2022-09-25T21:46:18.797Z,1.20
2022-09-25T21:48:54.433Z,1.10
2022-09-25T21:51:23.221Z,1.20
2022-09-25T21:53:50.240Z,1.10
2022-09-25T21:56:20.548Z,1.13
2022-09-25T21:58:47.822Z,1.30
2022-09-25T22:01:26.882Z,0.77
2022-09-25T22:03:56.819Z,0.93
2022-09-25T22:06:29.521Z,0.80
2022-09-25T22:08:57.863Z,1.10
2022-09-25T22:11:25.231Z,0.90
2022-09-25T22:13:51.921Z,0.70
2022-09-25T22:16:22.916Z,0.80
2022-09-25T22:18:59.024Z,0.70
2022-09-25T22:21:29.000Z,0.73
2022-09-25T22:23:56.622Z,0.57
2022-09-25T22:26:24.085Z,0.70
2022-09-25T22:28:51.152Z,0.55
2022-09-25T22:31:38.601Z,0.50
2022-09-25T22:34:07.381Z,0.68
2022-09-25T22:36:36.372Z,0.50
2022-09-25T22:39:05.044Z,0.40
2022-09-25T22:41:32.281Z,0.60
2022-09-25T22:44:00.924Z,0.40
2022-09-25T22:46:27.999Z,0.50
2022-09-25T22:48:54.621Z,0.30
2022-09-25T22:51:23.708Z,0.50
2022-09-25T22:53:51.227Z,0.50
2022-09-25T22:56:29.349Z,0.30
2022-09-25T22:59:01.351Z,0.40
2022-09-25T23:01:32.362Z,0.30
2022-09-25T23:04:01.795Z,0.50
2022-09-25T23:06:30.763Z,0.30
2022-09-25T23:09:00.639Z,0.32
2022-09-25T23:11:28.032Z,0.43
2022-09-25T23:14:03.568Z,0.30
2022-09-25T23:16:32.233Z,0.30
2022-09-25T23:18:59.753Z,0.60
2022-09-25T23:21:28.054Z,0.50
2022-09-25T23:23:59.064Z,0.60
2022-09-25T23:26:25.813Z,0.60
2022-09-25T23:28:53.079Z,0.55
2022-09-25T23:31:20.132Z,1.02
2022-09-25T23:33:47.411Z,0.70
2022-09-25T23:36:20.321Z,0.85
2022-09-25T23:38:48.334Z,0.80
2022-09-25T23:41:24.605Z,1.30
2022-09-25T23:43:52.481Z,0.98
2022-09-25T23:46:21.088Z,1.10
2022-09-25T23:48:48.405Z,1.17
2022-09-25T23:51:16.309Z,1.20
2022-09-25T23:53:43.416Z,1.08
2022-09-25T23:56:21.503Z,1.50
2022-09-25T23:58:49.118Z,1.30
